Time;durP1;ratioP1;P1;durP2;ratioP2;P2;SDS_P1;SDS_P2;PMS_P1;PMS_P2;Temp;Humidity;BMP_temperature;BMP_pressure;BME280_temperature;BME280_humidity;BME280_pressure;Samples;Min_cycle;Max_cycle;Signal;HPM_P1;HPM_P2
2023/06/25 00:01:17;;;;;;;4.45;2.85;;;;;;;;;;4937619;29;20051;-86
2023/06/25 00:03:42;;;;;;;4.63;2.95;;;;;;;;;;4923264;29;20039;-87
2023/06/25 00:06:08;;;;;;;5.00;2.63;;;;;;;;;;4953519;28;20516;-84
2023/06/25 00:08:33;;;;;;;4.00;3.13;;;;;;;;;;4959441;28;20027;-86
2023/06/25 00:10:58;;;;;;;4.13;3.00;;;;;;;;;;4961209;28;20027;-85
2023/06/25 00:13:24;;;;;;;5.45;3.17;;;;;;;;;;4948944;28;20510;-85
2023/06/25 00:15:49;;;;;;;3.92;2.80;;;;;;;;;;4950408;28;20038;-86
2023/06/25 00:18:15;;;;;;;4.18;3.00;;;;;;;;;;4963559;28;20548;-86
2023/06/25 00:20:40;;;;;;;5.50;3.08;;;;;;;;;;4967953;28;20058;-83
2023/06/25 00:23:05;;;;;;;5.00;3.10;;;;;;;;;;4963841;28;20031;-85
2023/06/25 00:25:31;;;;;;;5.95;3.20;;;;;;;;;;4967023;28;20031;-86
2023/06/25 00:27:57;;;;;;;6.45;2.90;;;;;;;;;;4965163;28;20042;-86
2023/06/25 00:30:23;;;;;;;4.30;3.05;;;;;;;;;;4951408;28;20018;-85
2023/06/25 00:32:54;;;;;;;5.10;3.17;;;;;;;;;;4966088;28;20382;-83
2023/06/25 00:35:24;;;;;;;5.70;3.42;;;;;;;;;;4970198;28;20154;-86
2023/06/25 00:37:50;;;;;;;4.22;2.85;;;;;;;;;;4949526;28;20474;-86
2023/06/25 00:40:16;;;;;;;4.10;3.28;;;;;;;;;;4924246;29;20023;-86
2023/06/25 00:42:43;;;;;;;7.13;3.30;;;;;;;;;;4942261;28;20023;-83
2023/06/25 00:45:10;;;;;;;5.90;3.15;;;;;;;;;;4935902;28;20023;-85
2023/06/25 00:47:36;;;;;;;4.75;3.30;;;;;;;;;;4948724;29;20032;-85
2023/06/25 00:50:03;;;;;;;5.15;3.45;;;;;;;;;;4953849;28;20086;-82
2023/06/25 00:55:51;;;;;;;4.85;3.50;;;;;;;;;;4971714;28;20042;-83
2023/06/25 00:58:26;;;;;;;5.50;3.15;;;;;;;;;;4954411;29;20023;-88
2023/06/25 01:00:58;;;;;;;7.50;3.20;;;;;;;;;;4963356;28;20031;-87
2023/06/25 01:03:30;;;;;;;5.07;3.60;;;;;;;;;;4945920;29;20080;-86
2023/06/25 01:06:08;;;;;;;5.63;3.22;;;;;;;;;;4944798;29;20042;-87
2023/06/25 01:08:36;;;;;;;4.85;3.75;;;;;;;;;;4977135;28;20039;-84
2023/06/25 01:11:03;;;;;;;5.63;3.72;;;;;;;;;;4948521;28;20130;-84
2023/06/25 01:13:31;;;;;;;5.55;3.42;;;;;;;;;;4955819;28;20028;-87
2023/06/25 01:16:01;;;;;;;4.90;3.30;;;;;;;;;;4945682;28;20089;-85
2023/06/25 01:18:30;;;;;;;6.53;3.33;;;;;;;;;;4973304;28;20026;-84
2023/06/25 01:20:59;;;;;;;4.75;3.40;;;;;;;;;;4934145;28;20094;-84
2023/06/25 01:23:24;;;;;;;4.55;2.92;;;;;;;;;;4949753;28;20503;-85
2023/06/25 01:25:50;;;;;;;6.60;3.50;;;;;;;;;;4929443;28;20489;-85
2023/06/25 01:28:20;;;;;;;5.43;3.40;;;;;;;;;;4936292;29;20030;-86
2023/06/25 01:31:19;;;;;;;5.47;3.40;;;;;;;;;;4947045;28;20093;-85
2023/06/25 01:33:44;;;;;;;5.15;3.38;;;;;;;;;;4924766;28;20040;-86
2023/06/25 01:36:10;;;;;;;5.00;3.53;;;;;;;;;;4937177;29;20019;-86
2023/06/25 01:38:35;;;;;;;6.70;4.18;;;;;;;;;;4961937;28;20101;-86
2023/06/25 01:41:01;;;;;;;4.75;3.70;;;;;;;;;;4960950;28;20082;-85
2023/06/25 01:43:26;;;;;;;6.25;3.55;;;;;;;;;;4946798;28;20127;-85
2023/06/25 01:45:51;;;;;;;5.07;3.67;;;;;;;;;;4929164;28;20031;-87
2023/06/25 01:48:17;;;;;;;5.65;4.00;;;;;;;;;;4950428;28;20074;-84
2023/06/25 01:50:42;;;;;;;5.28;3.60;;;;;;;;;;4952805;28;20119;-85
2023/06/25 01:53:08;;;;;;;5.47;3.85;;;;;;;;;;4940726;28;20030;-86
2023/06/25 01:55:34;;;;;;;5.63;3.65;;;;;;;;;;4942602;28;21259;-84
2023/06/25 01:57:59;;;;;;;5.32;3.92;;;;;;;;;;4967501;28;20099;-84
2023/06/25 02:00:25;;;;;;;7.78;3.60;;;;;;;;;;4963046;28;20019;-84
2023/06/25 02:02:50;;;;;;;5.45;3.80;;;;;;;;;;4950152;28;20049;-87
2023/06/25 02:08:49;;;;;;;5.68;3.60;;;;;;;;;;4957175;28;20038;-85
2023/06/25 02:11:15;;;;;;;8.40;3.67;;;;;;;;;;4944758;29;20620;-85
2023/06/25 02:13:41;;;;;;;5.47;3.63;;;;;;;;;;4956749;28;20110;-85
2023/06/25 02:19:36;;;;;;;5.70;3.75;;;;;;;;;;4961037;28;20117;-86
2023/06/25 02:22:01;;;;;;;5.97;3.90;;;;;;;;;;4937165;28;20125;-85
2023/06/25 02:24:26;;;;;;;4.70;3.65;;;;;;;;;;4969892;28;20454;-86
2023/06/25 02:26:52;;;;;;;9.25;3.88;;;;;;;;;;4930904;29;20043;-86
2023/06/25 02:29:18;;;;;;;7.03;3.65;;;;;;;;;;4961747;28;20018;-85
2023/06/25 02:35:08;;;;;;;6.47;3.40;;;;;;;;;;4935527;28;20042;-85
2023/06/25 02:37:34;;;;;;;5.75;3.75;;;;;;;;;;4954219;28;20043;-85
2023/06/25 02:39:59;;;;;;;5.97;3.78;;;;;;;;;;4960817;28;20027;-86
2023/06/25 02:42:24;;;;;;;6.82;4.30;;;;;;;;;;4937474;28;20525;-85
2023/06/25 02:44:50;;;;;;;6.10;3.63;;;;;;;;;;4959042;28;20114;-85
2023/06/25 02:47:18;;;;;;;7.80;4.18;;;;;;;;;;4953382;28;20413;-85
2023/06/25 02:49:43;;;;;;;7.57;4.03;;;;;;;;;;4951315;28;20058;-85
2023/06/25 02:52:11;;;;;;;6.15;3.95;;;;;;;;;;4947584;28;20094;-85
2023/06/25 02:54:37;;;;;;;8.23;4.20;;;;;;;;;;4939243;28;20065;-85
2023/06/25 02:57:02;;;;;;;5.32;3.83;;;;;;;;;;4955470;28;20058;-85
2023/06/25 02:59:59;;;;;;;4.85;3.80;;;;;;;;;;4951514;28;20445;-85
2023/06/25 03:02:25;;;;;;;5.93;4.13;;;;;;;;;;4929213;29;20039;-85
2023/06/25 03:04:51;;;;;;;5.85;3.97;;;;;;;;;;4943826;28;20031;-85
2023/06/25 03:13:54;;;;;;;6.10;4.10;;;;;;;;;;4962748;28;20090;-85
2023/06/25 03:16:22;;;;;;;5.70;3.78;;;;;;;;;;4953271;28;20348;-86
2023/06/25 03:18:48;;;;;;;8.38;4.45;;;;;;;;;;4955214;28;20054;-86
2023/06/25 03:22:06;;;;;;;6.18;4.22;;;;;;;;;;4946831;28;20405;-85
2023/06/25 03:24:44;;;;;;;7.10;4.10;;;;;;;;;;4946758;28;20047;-86
2023/06/25 03:27:21;;;;;;;5.78;4.10;;;;;;;;;;4938689;28;20035;-85
2023/06/25 03:29:50;;;;;;;7.68;4.28;;;;;;;;;;4963976;28;20425;-85
2023/06/25 03:32:36;;;;;;;7.18;4.03;;;;;;;;;;4954171;28;20106;-85
2023/06/25 03:35:02;;;;;;;8.23;4.03;;;;;;;;;;4966409;28;20093;-86
2023/06/25 03:37:56;;;;;;;6.68;4.55;;;;;;;;;;4945905;28;20043;-86
2023/06/25 03:40:28;;;;;;;8.68;4.50;;;;;;;;;;4948719;29;20030;-86
2023/06/25 03:43:28;;;;;;;6.20;4.38;;;;;;;;;;4969102;28;20191;-86
2023/06/25 03:46:02;;;;;;;9.48;4.38;;;;;;;;;;4932777;28;20097;-86
2023/06/25 03:48:48;;;;;;;6.75;4.50;;;;;;;;;;4956283;28;20624;-86
2023/06/25 03:51:43;;;;;;;6.53;4.28;;;;;;;;;;4946299;28;20053;-86
2023/06/25 03:54:09;;;;;;;7.13;4.60;;;;;;;;;;4957682;28;20026;-86
2023/06/25 03:56:36;;;;;;;7.40;4.05;;;;;;;;;;4964729;28;20034;-86
2023/06/25 04:02:28;;;;;;;7.97;4.28;;;;;;;;;;5215565;23;20047;-81
2023/06/25 04:04:53;;;;;;;8.20;4.22;;;;;;;;;;4978671;28;20045;-81
2023/06/25 04:07:18;;;;;;;6.85;4.82;;;;;;;;;;4960817;28;20077;-82
2023/06/25 04:09:44;;;;;;;8.75;4.60;;;;;;;;;;4963943;28;20027;-83
2023/06/25 04:12:09;;;;;;;7.78;4.53;;;;;;;;;;4961071;28;20038;-83
2023/06/25 04:14:35;;;;;;;6.80;4.30;;;;;;;;;;4968900;28;20043;-82
2023/06/25 04:17:00;;;;;;;6.35;3.92;;;;;;;;;;4964517;28;20058;-82
2023/06/25 04:19:26;;;;;;;6.40;4.40;;;;;;;;;;4960093;28;20039;-83
2023/06/25 04:21:51;;;;;;;5.43;4.35;;;;;;;;;;4967847;28;20066;-81
2023/06/25 04:24:16;;;;;;;5.78;4.45;;;;;;;;;;4964263;28;20031;-82
2023/06/25 04:26:42;;;;;;;7.00;4.40;;;;;;;;;;4953755;28;20031;-82
2023/06/25 04:29:07;;;;;;;6.70;4.40;;;;;;;;;;4975230;28;20073;-83
2023/06/25 04:31:32;;;;;;;8.10;4.60;;;;;;;;;;4959490;28;20083;-81
2023/06/25 04:33:58;;;;;;;7.18;5.13;;;;;;;;;;4970980;28;20038;-83
2023/06/25 04:36:23;;;;;;;7.47;4.60;;;;;;;;;;4964988;28;20027;-81
2023/06/25 04:38:48;;;;;;;7.25;3.90;;;;;;;;;;4947931;28;20023;-82
2023/06/25 04:41:14;;;;;;;8.80;5.15;;;;;;;;;;4965935;28;20129;-83
2023/06/25 04:43:39;;;;;;;6.00;4.47;;;;;;;;;;4960322;28;20098;-81
2023/06/25 04:46:04;;;;;;;10.45;5.25;;;;;;;;;;4944739;28;20031;-82
2023/06/25 04:48:30;;;;;;;7.88;4.88;;;;;;;;;;4959677;28;20027;-82
2023/06/25 04:50:55;;;;;;;7.60;5.25;;;;;;;;;;4970346;28;20552;-81
2023/06/25 04:53:20;;;;;;;9.05;5.30;;;;;;;;;;4967501;28;20047;-81
2023/06/25 04:55:46;;;;;;;9.93;4.88;;;;;;;;;;4945134;28;20030;-82
2023/06/25 04:58:11;;;;;;;8.38;5.07;;;;;;;;;;4961768;28;20126;-82
2023/06/25 05:00:36;;;;;;;8.27;5.72;;;;;;;;;;4952292;28;20033;-80
2023/06/25 05:03:02;;;;;;;9.88;5.50;;;;;;;;;;4948281;28;20043;-82
2023/06/25 05:05:27;;;;;;;11.68;5.60;;;;;;;;;;4963673;28;20035;-82
2023/06/25 05:07:53;;;;;;;8.75;5.63;;;;;;;;;;4963245;28;20034;-82
2023/06/25 05:10:19;;;;;;;8.13;5.00;;;;;;;;;;4962525;28;20079;-81
2023/06/25 05:12:45;;;;;;;10.02;5.50;;;;;;;;;;4966268;28;20037;-82
2023/06/25 05:15:10;;;;;;;10.82;6.30;;;;;;;;;;4967925;28;20058;-81
2023/06/25 05:17:35;;;;;;;8.95;6.38;;;;;;;;;;4953320;28;20028;-81
2023/06/25 05:20:01;;;;;;;13.27;6.70;;;;;;;;;;4963089;28;20106;-81
2023/06/25 05:22:26;;;;;;;11.68;6.50;;;;;;;;;;4966615;28;20035;-81
2023/06/25 05:24:51;;;;;;;9.48;6.05;;;;;;;;;;4964518;28;20031;-82
2023/06/25 05:27:17;;;;;;;9.50;5.80;;;;;;;;;;4963841;28;20031;-81
2023/06/25 05:29:42;;;;;;;9.75;6.15;;;;;;;;;;4962128;28;20035;-82
2023/06/25 05:32:08;;;;;;;11.13;6.50;;;;;;;;;;4971059;28;20565;-83
2023/06/25 05:34:33;;;;;;;8.23;5.68;;;;;;;;;;4969055;28;20027;-83
2023/06/25 05:36:58;;;;;;;10.73;6.30;;;;;;;;;;4962870;28;20034;-82
2023/06/25 05:39:29;;;;;;;10.05;6.78;;;;;;;;;;4948425;29;20035;-83
2023/06/25 05:41:57;;;;;;;11.77;6.30;;;;;;;;;;4980761;28;20059;-82
2023/06/25 05:44:22;;;;;;;9.82;6.32;;;;;;;;;;4943367;29;20643;-82
2023/06/25 05:46:47;;;;;;;8.85;5.72;;;;;;;;;;4958594;28;20031;-81
2023/06/25 05:49:12;;;;;;;9.38;5.10;;;;;;;;;;4954267;28;20595;-81
2023/06/25 05:51:38;;;;;;;9.02;5.32;;;;;;;;;;4969698;28;20110;-80
2023/06/25 05:54:03;;;;;;;13.38;5.93;;;;;;;;;;4955815;28;20090;-82
2023/06/25 05:56:29;;;;;;;11.70;4.80;;;;;;;;;;4954682;29;20015;-81
2023/06/25 05:58:54;;;;;;;7.63;4.95;;;;;;;;;;4966275;28;20390;-81
2023/06/25 06:01:21;;;;;;;10.43;5.22;;;;;;;;;;4940394;28;20465;-83
2023/06/25 06:03:47;;;;;;;10.90;5.65;;;;;;;;;;4963420;28;20039;-81
2023/06/25 06:06:13;;;;;;;7.07;4.70;;;;;;;;;;4964881;28;20026;-82
2023/06/25 06:08:38;;;;;;;8.75;4.13;;;;;;;;;;4969464;28;20027;-83
2023/06/25 06:11:03;;;;;;;6.68;4.25;;;;;;;;;;4948879;29;20038;-82
2023/06/25 06:13:29;;;;;;;9.98;4.50;;;;;;;;;;4966584;28;20031;-82
2023/06/25 06:15:54;;;;;;;6.70;4.00;;;;;;;;;;4964749;29;20087;-82
2023/06/25 06:18:20;;;;;;;6.20;3.83;;;;;;;;;;4964375;28;20039;-83
2023/06/25 06:20:46;;;;;;;5.18;3.60;;;;;;;;;;4950954;28;20024;-82
2023/06/25 06:23:11;;;;;;;6.13;3.50;;;;;;;;;;4974596;28;20636;-82
2023/06/25 06:25:36;;;;;;;5.93;3.97;;;;;;;;;;4953750;28;20039;-82
2023/06/25 06:28:03;;;;;;;8.63;3.90;;;;;;;;;;4946086;28;20027;-80
2023/06/25 06:30:28;;;;;;;6.55;4.00;;;;;;;;;;4966949;28;20055;-83
2023/06/25 06:32:54;;;;;;;7.32;4.00;;;;;;;;;;4955941;29;20122;-81
2023/06/25 06:35:20;;;;;;;7.07;4.00;;;;;;;;;;4971901;28;20031;-82
2023/06/25 06:37:45;;;;;;;8.15;4.13;;;;;;;;;;4970481;28;20074;-82
2023/06/25 06:40:11;;;;;;;5.10;3.47;;;;;;;;;;4971810;28;20023;-84
2023/06/25 06:42:36;;;;;;;5.43;4.10;;;;;;;;;;4966138;28;20043;-82
2023/06/25 06:45:02;;;;;;;5.95;4.18;;;;;;;;;;4969832;28;20023;-81
2023/06/25 06:47:28;;;;;;;6.38;4.28;;;;;;;;;;4967430;28;20031;-81
2023/06/25 06:49:53;;;;;;;6.20;3.70;;;;;;;;;;4962036;28;20058;-84
2023/06/25 06:52:24;;;;;;;5.80;4.07;;;;;;;;;;4951095;28;20078;-81
2023/06/25 06:54:49;;;;;;;5.75;4.13;;;;;;;;;;4960788;28;20031;-83
2023/06/25 06:57:15;;;;;;;5.47;3.40;;;;;;;;;;4973441;28;20579;-83
2023/06/25 06:59:40;;;;;;;5.20;3.70;;;;;;;;;;4974519;28;20027;-82
2023/06/25 07:02:05;;;;;;;4.20;3.70;;;;;;;;;;4973614;28;20035;-80
2023/06/25 07:04:30;;;;;;;4.45;3.67;;;;;;;;;;4968868;28;20058;-83
2023/06/25 07:06:56;;;;;;;5.00;3.72;;;;;;;;;;4960813;28;20031;-80
2023/06/25 07:09:24;;;;;;;6.88;4.10;;;;;;;;;;4945042;29;20549;-81
2023/06/25 07:11:49;;;;;;;5.55;4.00;;;;;;;;;;4962147;28;20116;-83
2023/06/25 07:14:14;;;;;;;5.85;3.80;;;;;;;;;;4945716;29;20063;-80
2023/06/25 07:16:41;;;;;;;6.70;3.90;;;;;;;;;;4963551;28;20023;-82
2023/06/25 07:19:07;;;;;;;8.13;3.95;;;;;;;;;;4962783;28;20049;-81
2023/06/25 07:21:32;;;;;;;6.03;3.78;;;;;;;;;;4970803;28;20020;-83
2023/06/25 07:23:58;;;;;;;7.93;4.53;;;;;;;;;;4964631;28;20098;-83
2023/06/25 07:26:23;;;;;;;5.28;3.70;;;;;;;;;;4946678;28;20038;-81
2023/06/25 07:28:48;;;;;;;4.80;3.88;;;;;;;;;;4969892;28;20062;-81
2023/06/25 07:31:14;;;;;;;5.05;4.00;;;;;;;;;;4961906;28;20061;-81
2023/06/25 07:33:39;;;;;;;8.05;3.63;;;;;;;;;;4962027;28;20083;-82
2023/06/25 07:36:05;;;;;;;8.40;4.55;;;;;;;;;;4962092;28;20513;-84
2023/06/25 07:38:30;;;;;;;7.05;4.50;;;;;;;;;;4944854;29;20027;-84
2023/06/25 07:40:55;;;;;;;4.95;3.83;;;;;;;;;;4961880;28;20031;-83
2023/06/25 07:43:21;;;;;;;6.10;4.07;;;;;;;;;;4947021;29;20027;-84
2023/06/25 07:45:46;;;;;;;4.90;3.85;;;;;;;;;;4963281;29;20031;-83
2023/06/25 07:48:11;;;;;;;6.00;3.70;;;;;;;;;;4969462;28;20046;-82
2023/06/25 07:50:37;;;;;;;8.02;4.63;;;;;;;;;;4968321;28;20027;-80
2023/06/25 07:53:02;;;;;;;6.60;4.32;;;;;;;;;;4962434;28;20059;-84
2023/06/25 07:55:28;;;;;;;7.25;4.40;;;;;;;;;;4952057;29;20118;-83
2023/06/25 07:57:53;;;;;;;5.28;4.10;;;;;;;;;;4945742;29;20027;-83
2023/06/25 08:00:19;;;;;;;8.55;4.88;;;;;;;;;;4961325;28;20035;-83
2023/06/25 08:02:44;;;;;;;6.30;4.45;;;;;;;;;;4949837;28;20551;-83
2023/06/25 08:05:10;;;;;;;5.95;4.53;;;;;;;;;;4966168;28;20031;-81
2023/06/25 08:07:36;;;;;;;6.43;4.80;;;;;;;;;;4950313;29;20045;-81
2023/06/25 08:10:02;;;;;;;5.82;4.47;;;;;;;;;;4973514;28;20023;-81
2023/06/25 08:12:27;;;;;;;6.75;4.95;;;;;;;;;;4967763;28;20031;-82
2023/06/25 08:14:53;;;;;;;6.03;3.90;;;;;;;;;;4964261;28;20039;-82
2023/06/25 08:17:18;;;;;;;8.68;5.10;;;;;;;;;;4962278;29;20035;-82
2023/06/25 08:19:43;;;;;;;7.28;5.03;;;;;;;;;;4954126;28;20037;-78
2023/06/25 08:22:09;;;;;;;9.13;4.88;;;;;;;;;;4977677;28;20027;-83
2023/06/25 08:24:34;;;;;;;6.90;4.38;;;;;;;;;;4953059;29;20031;-82
2023/06/25 08:26:59;;;;;;;6.43;4.07;;;;;;;;;;4971711;28;20118;-82
2023/06/25 08:29:25;;;;;;;10.80;5.50;;;;;;;;;;4967627;28;20031;-81
2023/06/25 08:31:50;;;;;;;6.22;4.72;;;;;;;;;;4969428;28;20135;-80
2023/06/25 08:34:15;;;;;;;5.60;4.25;;;;;;;;;;4962765;28;20035;-82
2023/06/25 08:36:41;;;;;;;6.53;4.45;;;;;;;;;;4974475;28;20066;-81
2023/06/25 08:39:06;;;;;;;6.22;4.47;;;;;;;;;;4970444;28;20418;-82
2023/06/25 08:41:31;;;;;;;7.22;4.35;;;;;;;;;;4954584;28;20037;-83
2023/06/25 08:43:57;;;;;;;6.03;4.50;;;;;;;;;;4948981;28;20054;-85
2023/06/25 08:46:24;;;;;;;5.65;4.40;;;;;;;;;;4964355;28;20051;-83
2023/06/25 08:48:54;;;;;;;6.30;4.60;;;;;;;;;;4963522;28;20027;-83
2023/06/25 08:51:23;;;;;;;5.57;3.90;;;;;;;;;;4962904;29;20027;-83
2023/06/25 08:53:48;;;;;;;6.90;4.28;;;;;;;;;;4963768;28;20050;-83
2023/06/25 08:56:17;;;;;;;6.15;4.70;;;;;;;;;;4960069;28;20494;-83
2023/06/25 08:58:43;;;;;;;7.82;5.00;;;;;;;;;;4946813;23;20044;-83
2023/06/25 09:01:10;;;;;;;9.10;5.13;;;;;;;;;;4927272;29;20027;-81
2023/06/25 09:03:35;;;;;;;6.22;4.22;;;;;;;;;;4934155;29;20023;-82
2023/06/25 09:06:01;;;;;;;7.22;4.50;;;;;;;;;;4944118;29;20048;-83
2023/06/25 09:08:28;;;;;;;6.10;4.57;;;;;;;;;;4925512;29;20477;-83
2023/06/25 09:10:56;;;;;;;6.65;4.63;;;;;;;;;;4911786;29;20111;-83
2023/06/25 09:13:26;;;;;;;7.65;4.13;;;;;;;;;;4925007;29;20496;-82
2023/06/25 09:15:53;;;;;;;6.38;4.45;;;;;;;;;;4910644;29;20040;-84
2023/06/25 09:18:21;;;;;;;5.95;4.25;;;;;;;;;;4923693;29;20103;-82
2023/06/25 09:20:48;;;;;;;5.97;4.10;;;;;;;;;;4917212;29;20080;-82
2023/06/25 09:23:19;;;;;;;6.13;4.75;;;;;;;;;;4921456;29;20036;-82
2023/06/25 09:25:44;;;;;;;6.53;4.70;;;;;;;;;;4929129;29;20045;-82
2023/06/25 09:28:10;;;;;;;5.20;3.60;;;;;;;;;;4918932;29;20039;-82
2023/06/25 09:30:35;;;;;;;5.20;3.55;;;;;;;;;;4929106;29;20466;-83
2023/06/25 09:33:03;;;;;;;6.00;3.95;;;;;;;;;;4932063;29;20051;-84
2023/06/25 09:35:30;;;;;;;8.82;4.45;;;;;;;;;;4928202;29;20020;-82
2023/06/25 09:37:56;;;;;;;6.10;4.28;;;;;;;;;;4921787;29;20032;-81
2023/06/25 09:40:21;;;;;;;6.88;4.53;;;;;;;;;;4904541;29;20398;-84
2023/06/25 09:42:53;;;;;;;7.22;4.50;;;;;;;;;;4920056;29;20059;-82
2023/06/25 09:45:20;;;;;;;9.48;4.47;;;;;;;;;;4917634;29;20047;-83
2023/06/25 09:47:46;;;;;;;5.45;4.30;;;;;;;;;;4920472;29;20028;-83
2023/06/25 09:50:18;;;;;;;5.53;3.95;;;;;;;;;;4915715;29;20036;-82
2023/06/25 09:52:47;;;;;;;;;;;;;;;;;;4926091;29;20032;-85
2023/06/25 09:55:20;;;;;;;6.65;4.40;;;;;;;;;;4916468;29;19911;-83
2023/06/25 09:57:46;;;;;;;5.30;4.18;;;;;;;;;;4914366;29;20043;-84
2023/06/25 10:00:12;;;;;;;7.30;4.72;;;;;;;;;;4915908;29;20032;-82
2023/06/25 10:02:38;;;;;;;7.70;4.50;;;;;;;;;;4922982;29;20110;-83
2023/06/25 10:05:04;;;;;;;5.60;4.10;;;;;;;;;;4917738;29;20062;-81
2023/06/25 10:07:30;;;;;;;7.30;4.20;;;;;;;;;;4901465;29;20039;-82
2023/06/25 10:09:56;;;;;;;5.25;4.13;;;;;;;;;;4919087;29;20099;-82
2023/06/25 10:12:22;;;;;;;8.68;4.50;;;;;;;;;;4916048;29;20024;-82
2023/06/25 10:14:48;;;;;;;5.43;3.90;;;;;;;;;;4920016;29;20063;-83
2023/06/25 10:17:14;;;;;;;7.00;4.80;;;;;;;;;;4918218;29;20034;-83
2023/06/25 10:19:55;;;;;;;6.25;4.45;;;;;;;;;;4919338;29;20398;-83
2023/06/25 10:22:23;;;;;;;8.52;5.05;;;;;;;;;;4916539;29;20046;-82
2023/06/25 10:24:50;;;;;;;5.68;4.68;;;;;;;;;;4907824;29;20090;-82
2023/06/25 10:27:25;;;;;;;8.35;4.50;;;;;;;;;;4918639;29;20043;-82
2023/06/25 10:29:51;;;;;;;10.05;5.00;;;;;;;;;;4921646;29;20028;-82
2023/06/25 10:32:28;;;;;;;6.18;4.47;;;;;;;;;;4928856;29;20014;-81
2023/06/25 10:38:25;;;;;;;;;;;;;;;;;;5146512;23;20106;-86
2023/06/25 10:40:54;;;;;;;7.78;4.68;;;;;;;;;;4979430;28;19953;-86
2023/06/25 10:43:51;;;;;;;7.88;4.45;;;;;;;;;;4964414;28;20072;-85
2023/06/25 10:46:16;;;;;;;6.63;4.57;;;;;;;;;;4965174;28;20134;-86
2023/06/25 10:48:45;;;;;;;5.85;3.97;;;;;;;;;;4970860;28;20034;-85
2023/06/25 10:51:19;;;;;;;5.68;4.53;;;;;;;;;;4941638;29;20062;-87
2023/06/25 10:53:47;;;;;;;5.97;4.47;;;;;;;;;;4961842;28;20028;-87
2023/06/25 10:56:17;;;;;;;5.90;3.97;;;;;;;;;;4956906;28;20105;-86
2023/06/25 10:58:44;;;;;;;5.50;4.55;;;;;;;;;;4947324;28;20497;-85
2023/06/25 11:01:09;;;;;;;6.60;4.47;;;;;;;;;;4957288;28;20028;-85
2023/06/25 11:03:36;;;;;;;5.53;4.50;;;;;;;;;;4967707;28;20529;-86
2023/06/25 11:06:01;;;;;;;5.57;4.40;;;;;;;;;;4958585;28;20138;-85
2023/06/25 11:08:27;;;;;;;6.85;4.70;;;;;;;;;;4934012;28;20089;-87
2023/06/25 11:10:53;;;;;;;7.45;4.40;;;;;;;;;;4958066;28;20034;-87
2023/06/25 11:13:18;;;;;;;6.57;4.82;;;;;;;;;;4960565;28;20030;-86
2023/06/25 11:15:44;;;;;;;7.97;4.70;;;;;;;;;;4942974;29;20110;-85
2023/06/25 11:18:10;;;;;;;6.47;4.53;;;;;;;;;;4961793;28;20034;-85
2023/06/25 11:20:39;;;;;;;6.90;4.50;;;;;;;;;;4959632;28;20043;-86
2023/06/25 11:23:05;;;;;;;5.15;3.78;;;;;;;;;;4956047;28;20031;-87
2023/06/25 11:25:31;;;;;;;5.35;4.13;;;;;;;;;;4959334;28;20698;-86
2023/06/25 11:28:11;;;;;;;6.13;4.25;;;;;;;;;;4958840;28;20127;-86
2023/06/25 11:30:37;;;;;;;7.95;4.45;;;;;;;;;;4943819;28;20061;-86
2023/06/25 11:33:21;;;;;;;6.10;4.55;;;;;;;;;;4967118;28;20059;-86
2023/06/25 11:35:53;;;;;;;5.38;4.55;;;;;;;;;;4983748;28;20027;-86
2023/06/25 11:38:26;;;;;;;6.43;4.80;;;;;;;;;;4976774;28;20031;-84
2023/06/25 11:40:53;;;;;;;6.10;4.65;;;;;;;;;;4970155;28;20055;-87
2023/06/25 11:43:22;;;;;;;6.53;4.13;;;;;;;;;;4971230;28;20028;-86
2023/06/25 11:45:48;;;;;;;5.68;4.32;;;;;;;;;;4976271;28;20497;-85
2023/06/25 11:48:15;;;;;;;7.43;3.95;;;;;;;;;;4945943;29;20038;-87
2023/06/25 11:50:42;;;;;;;4.93;3.85;;;;;;;;;;4966608;28;20022;-83
2023/06/25 11:53:08;;;;;;;5.75;3.95;;;;;;;;;;4963551;28;20101;-84
2023/06/25 11:55:33;;;;;;;6.10;4.00;;;;;;;;;;4969999;28;20062;-85
2023/06/25 11:57:58;;;;;;;5.32;3.67;;;;;;;;;;4978506;28;20034;-85
2023/06/25 12:00:24;;;;;;;5.28;4.28;;;;;;;;;;4944423;28;20101;-86
2023/06/25 12:02:49;;;;;;;5.93;3.90;;;;;;;;;;4969762;28;20022;-84
2023/06/25 12:05:15;;;;;;;6.15;4.25;;;;;;;;;;4945349;29;20031;-84
2023/06/25 12:07:40;;;;;;;7.07;4.32;;;;;;;;;;4973662;28;20027;-84
2023/06/25 12:10:06;;;;;;;4.93;3.85;;;;;;;;;;4962238;28;20023;-85
2023/06/25 12:12:31;;;;;;;5.80;4.28;;;;;;;;;;4973365;28;20102;-83
2023/06/25 12:14:57;;;;;;;4.78;3.45;;;;;;;;;;4972595;28;20505;-84
2023/06/25 12:17:22;;;;;;;5.70;4.30;;;;;;;;;;4960622;28;20035;-86
2023/06/25 12:19:47;;;;;;;6.50;4.32;;;;;;;;;;4979188;28;20019;-83
2023/06/25 12:22:13;;;;;;;5.53;4.38;;;;;;;;;;4966076;28;20019;-86
2023/06/25 12:24:39;;;;;;;4.82;3.85;;;;;;;;;;4979149;28;20026;-84
2023/06/25 12:27:04;;;;;;;6.30;4.18;;;;;;;;;;4943752;29;20094;-85
2023/06/25 12:29:31;;;;;;;6.70;3.35;;;;;;;;;;4960393;28;20027;-87
2023/06/25 12:31:56;;;;;;;6.57;4.18;;;;;;;;;;4946011;29;20050;-87
2023/06/25 12:34:25;;;;;;;4.03;3.53;;;;;;;;;;4965915;28;20027;-85
2023/06/25 12:36:50;;;;;;;6.72;3.70;;;;;;;;;;4961584;28;20035;-85
2023/06/25 12:39:15;;;;;;;5.20;3.90;;;;;;;;;;4944121;29;20034;-84
2023/06/25 12:41:41;;;;;;;6.20;3.88;;;;;;;;;;4964045;28;20425;-85
2023/06/25 12:44:09;;;;;;;6.43;4.10;;;;;;;;;;4972245;28;20403;-85
2023/06/25 12:46:37;;;;;;;5.25;4.10;;;;;;;;;;4966174;28;20172;-84
2023/06/25 12:49:09;;;;;;;5.55;3.90;;;;;;;;;;4978119;28;20043;-84
2023/06/25 12:51:48;;;;;;;;;;;;;;;;;;;;;
2023/06/25 12:54:24;;;;;;;5.53;3.60;;;;;;;;;;4972932;28;20091;-84
2023/06/25 12:56:58;;;;;;;9.15;3.88;;;;;;;;;;4960788;28;20036;-88
2023/06/25 12:59:26;;;;;;;5.10;3.92;;;;;;;;;;4961130;28;20037;-85
2023/06/25 13:01:55;;;;;;;9.30;4.15;;;;;;;;;;4957714;28;20051;-84
2023/06/25 13:04:22;;;;;;;5.90;4.25;;;;;;;;;;4946054;28;20022;-87
2023/06/25 13:06:48;;;;;;;4.65;4.03;;;;;;;;;;4951329;28;20027;-85
2023/06/25 13:09:13;;;;;;;5.15;4.10;;;;;;;;;;4961826;29;20038;-84
2023/06/25 13:11:39;;;;;;;7.03;4.00;;;;;;;;;;4960722;28;20024;-84
2023/06/25 13:14:04;;;;;;;5.15;3.70;;;;;;;;;;4951103;28;20033;-84
2023/06/25 13:16:30;;;;;;;6.40;4.15;;;;;;;;;;4962510;28;20023;-85
2023/06/25 13:18:55;;;;;;;5.97;4.63;;;;;;;;;;4964411;28;20050;-84
2023/06/25 13:21:21;;;;;;;5.47;4.25;;;;;;;;;;4944786;29;20035;-84
2023/06/25 13:23:46;;;;;;;9.38;4.97;;;;;;;;;;4965975;28;20062;-86
2023/06/25 13:26:20;;;;;;;4.93;3.80;;;;;;;;;;4968796;28;20031;-84
2023/06/25 13:28:45;;;;;;;5.97;4.47;;;;;;;;;;4952164;28;20034;-84
2023/06/25 13:31:11;;;;;;;5.43;3.88;;;;;;;;;;4981316;28;20022;-84
2023/06/25 13:33:36;;;;;;;5.90;4.25;;;;;;;;;;4974567;28;20098;-85
2023/06/25 13:36:01;;;;;;;4.40;3.75;;;;;;;;;;4967854;29;20039;-84
2023/06/25 13:38:27;;;;;;;7.45;3.90;;;;;;;;;;4965189;28;20042;-87
2023/06/25 13:40:52;;;;;;;4.85;3.60;;;;;;;;;;4967946;28;20045;-86
2023/06/25 13:43:18;;;;;;;6.05;4.75;;;;;;;;;;4955495;28;20022;-85
2023/06/25 13:45:43;;;;;;;7.32;4.60;;;;;;;;;;4954430;28;20103;-85
2023/06/25 13:48:09;;;;;;;5.30;3.85;;;;;;;;;;4969415;28;20029;-85
2023/06/25 13:51:13;;;;;;;5.55;4.00;;;;;;;;;;4966496;28;20030;-83
2023/06/25 13:53:42;;;;;;;5.07;3.88;;;;;;;;;;4955728;28;20079;-83
2023/06/25 13:56:08;;;;;;;4.38;3.63;;;;;;;;;;4953609;28;20031;-84
2023/06/25 13:58:35;;;;;;;5.10;3.78;;;;;;;;;;4965834;28;20544;-83
2023/06/25 14:01:00;;;;;;;5.30;4.22;;;;;;;;;;4953540;28;20391;-81
2023/06/25 14:03:26;;;;;;;5.20;4.10;;;;;;;;;;4963644;28;20082;-82
2023/06/25 14:05:51;;;;;;;6.20;4.82;;;;;;;;;;4966412;28;20027;-84
2023/06/25 14:08:16;;;;;;;8.05;4.63;;;;;;;;;;4965097;28;20481;-83
2023/06/25 14:10:42;;;;;;;5.72;4.18;;;;;;;;;;4973797;28;20070;-82
2023/06/25 14:13:10;;;;;;;6.68;4.75;;;;;;;;;;4963331;28;20034;-83
2023/06/25 14:15:35;;;;;;;5.88;4.53;;;;;;;;;;4949218;28;20059;-82
2023/06/25 14:18:01;;;;;;;7.55;4.75;;;;;;;;;;4951461;28;20437;-82
2023/06/25 14:20:26;;;;;;;6.82;4.30;;;;;;;;;;4959145;28;20682;-82
2023/06/25 14:22:51;;;;;;;6.20;4.93;;;;;;;;;;4961507;28;20030;-82
2023/06/25 14:25:17;;;;;;;7.05;4.65;;;;;;;;;;4964411;28;20026;-83
2023/06/25 14:27:42;;;;;;;6.88;4.88;;;;;;;;;;4953732;28;20034;-84
2023/06/25 14:30:08;;;;;;;6.97;4.78;;;;;;;;;;4949098;28;20058;-82
2023/06/25 14:32:34;;;;;;;6.43;4.70;;;;;;;;;;4961749;28;20397;-83
2023/06/25 14:34:59;;;;;;;5.50;4.35;;;;;;;;;;4960836;28;20023;-83
2023/06/25 14:37:45;;;;;;;5.60;4.45;;;;;;;;;;4948578;28;20027;-82
2023/06/25 14:40:10;;;;;;;7.00;4.57;;;;;;;;;;4959038;28;20031;-82
2023/06/25 14:42:37;;;;;;;6.10;4.60;;;;;;;;;;4955521;28;20079;-83
2023/06/25 14:45:05;;;;;;;7.32;4.82;;;;;;;;;;4951701;28;20035;-82
2023/06/25 14:47:34;;;;;;;6.60;5.20;;;;;;;;;;4951263;28;20574;-82
2023/06/25 14:50:19;;;;;;;7.50;4.65;;;;;;;;;;4960629;28;20031;-83
2023/06/25 14:52:44;;;;;;;5.53;4.30;;;;;;;;;;4956493;28;20122;-83
2023/06/25 14:55:51;;;;;;;5.22;4.50;;;;;;;;;;4947614;28;20107;-83
2023/06/25 14:58:17;;;;;;;6.85;4.60;;;;;;;;;;4957718;28;20042;-83
2023/06/25 15:01:01;;;;;;;7.63;4.68;;;;;;;;;;4945674;28;20023;-83
2023/06/25 15:03:26;;;;;;;6.57;4.40;;;;;;;;;;4954432;28;20025;-85
2023/06/25 15:05:51;;;;;;;5.90;3.97;;;;;;;;;;4958415;28;20034;-84
2023/06/25 15:08:27;;;;;;;6.45;4.50;;;;;;;;;;4961392;28;20023;-82
2023/06/25 15:10:52;;;;;;;7.07;4.43;;;;;;;;;;4957600;28;20461;-83
2023/06/25 15:13:18;;;;;;;6.10;4.72;;;;;;;;;;4964960;28;20065;-81